sensor_id;sensor_type;location;lat;lon;timestamp;pressure;altitude;pressure_sealevel;temperature;humidity
23223;BME280;11780;13.904;100.620;2023-08-12T00:01:50;100789.97;;;31.83;62.71
23223;BME280;11780;13.904;100.620;2023-08-12T00:04:20;100785.91;;;31.80;63.11
23223;BME280;11780;13.904;100.620;2023-08-12T00:06:51;100794.69;;;31.82;63.25
23223;BME280;11780;13.904;100.620;2023-08-12T00:09:21;100799.41;;;31.82;63.03
23223;BME280;11780;13.904;100.620;2023-08-12T00:11:52;100800.38;;;31.86;62.96
23223;BME280;11780;13.904;100.620;2023-08-12T00:14:22;100804.13;;;31.81;63.05
23223;BME280;11780;13.904;100.620;2023-08-12T00:16:52;100800.72;;;31.84;62.69
23223;BME280;11780;13.904;100.620;2023-08-12T00:19:23;100813.88;;;31.87;62.89
23223;BME280;11780;13.904;100.620;2023-08-12T00:21:53;100821.03;;;31.88;62.99
23223;BME280;11780;13.904;100.620;2023-08-12T00:24:24;100823.00;;;31.88;62.92
23223;BME280;11780;13.904;100.620;2023-08-12T00:26:54;100824.59;;;31.98;62.88
23223;BME280;11780;13.904;100.620;2023-08-12T00:29:25;100826.22;;;31.99;63.21
23223;BME280;11780;13.904;100.620;2023-08-12T00:31:55;100833.56;;;31.95;63.31
23223;BME280;11780;13.904;100.620;2023-08-12T00:34:26;100838.91;;;32.00;63.16
23223;BME280;11780;13.904;100.620;2023-08-12T00:36:57;100836.47;;;31.98;63.45
23223;BME280;11780;13.904;100.620;2023-08-12T00:39:27;100843.28;;;32.01;63.73
23223;BME280;11780;13.904;100.620;2023-08-12T00:41:58;100837.44;;;32.02;63.91
23223;BME280;11780;13.904;100.620;2023-08-12T00:44:29;100836.81;;;31.97;63.78
23223;BME280;11780;13.904;100.620;2023-08-12T00:47:00;100841.38;;;31.93;63.19
23223;BME280;11780;13.904;100.620;2023-08-12T00:49:31;100840.22;;;32.02;63.16
23223;BME280;11780;13.904;100.620;2023-08-12T00:52:03;100851.13;;;31.99;63.12
23223;BME280;11780;13.904;100.620;2023-08-12T00:54:33;100851.75;;;32.04;63.21
23223;BME280;11780;13.904;100.620;2023-08-12T00:57:04;100860.03;;;32.13;63.64
23223;BME280;11780;13.904;100.620;2023-08-12T00:59:36;100851.75;;;32.04;63.29
23223;BME280;11780;13.904;100.620;2023-08-12T01:02:11;100861.00;;;32.09;63.19
23223;BME280;11780;13.904;100.620;2023-08-12T01:04:42;100867.03;;;32.11;62.99
23223;BME280;11780;13.904;100.620;2023-08-12T01:07:13;100862.63;;;32.10;62.72
23223;BME280;11780;13.904;100.620;2023-08-12T01:09:44;100865.25;;;32.06;62.39
23223;BME280;11780;13.904;100.620;2023-08-12T01:12:22;100860.53;;;32.07;62.33
23223;BME280;11780;13.904;100.620;2023-08-12T01:15:14;100859.41;;;32.08;62.09
23223;BME280;11780;13.904;100.620;2023-08-12T01:17:46;100865.09;;;32.02;62.07
23223;BME280;11780;13.904;100.620;2023-08-12T01:20:22;100859.56;;;32.02;61.84
23223;BME280;11780;13.904;100.620;2023-08-12T01:23:08;100860.88;;;31.96;61.86
23223;BME280;11780;13.904;100.620;2023-08-12T01:25:40;100866.59;;;31.91;61.12
23223;BME280;11780;13.904;100.620;2023-08-12T01:28:11;100862.00;;;31.95;61.55
23223;BME280;11780;13.904;100.620;2023-08-12T01:30:51;100869.53;;;31.95;61.58
23223;BME280;11780;13.904;100.620;2023-08-12T01:33:42;100859.44;;;31.90;61.20
23223;BME280;11780;13.904;100.620;2023-08-12T01:36:18;100861.72;;;31.97;61.76
23223;BME280;11780;13.904;100.620;2023-08-12T01:38:51;100865.28;;;31.97;61.81
23223;BME280;11780;13.904;100.620;2023-08-12T01:41:23;100868.88;;;31.98;61.72
23223;BME280;11780;13.904;100.620;2023-08-12T01:43:54;100866.91;;;31.98;61.81
23223;BME280;11780;13.904;100.620;2023-08-12T01:46:25;100876.47;;;32.01;61.71
23223;BME280;11780;13.904;100.620;2023-08-12T01:48:56;100876.81;;;32.08;61.87
23223;BME280;11780;13.904;100.620;2023-08-12T01:51:27;100885.47;;;31.98;61.99
23223;BME280;11780;13.904;100.620;2023-08-12T01:53:57;100892.44;;;32.04;61.60
23223;BME280;11780;13.904;100.620;2023-08-12T01:56:28;100881.38;;;32.04;61.99
23223;BME280;11780;13.904;100.620;2023-08-12T01:58:58;100890.00;;;32.11;61.82
23223;BME280;11780;13.904;100.620;2023-08-12T02:01:30;100881.66;;;32.20;61.39
23223;BME280;11780;13.904;100.620;2023-08-12T02:04:01;100883.47;;;32.16;61.72
23223;BME280;11780;13.904;100.620;2023-08-12T02:06:31;100883.13;;;32.17;61.52
23223;BME280;11780;13.904;100.620;2023-08-12T02:09:02;100879.22;;;32.18;61.16
23223;BME280;11780;13.904;100.620;2023-08-12T02:11:32;100869.13;;;32.14;61.19
23223;BME280;11780;13.904;100.620;2023-08-12T02:14:02;100873.50;;;32.24;60.56
23223;BME280;11780;13.904;100.620;2023-08-12T02:16:33;100877.91;;;32.25;60.76
23223;BME280;11780;13.904;100.620;2023-08-12T02:19:03;100879.41;;;32.31;60.79
23223;BME280;11780;13.904;100.620;2023-08-12T02:21:34;100875.00;;;32.30;60.57
23223;BME280;11780;13.904;100.620;2023-08-12T02:24:04;100882.16;;;32.31;60.80
23223;BME280;11780;13.904;100.620;2023-08-12T02:26:37;100872.69;;;32.32;60.63
23223;BME280;11780;13.904;100.620;2023-08-12T02:29:08;100872.03;;;32.35;60.59
23223;BME280;11780;13.904;100.620;2023-08-12T02:31:38;100871.56;;;32.33;60.79
23223;BME280;11780;13.904;100.620;2023-08-12T02:34:08;100872.50;;;32.37;60.43
23223;BME280;11780;13.904;100.620;2023-08-12T02:36:39;100876.44;;;32.36;60.20
23223;BME280;11780;13.904;100.620;2023-08-12T02:39:10;100876.44;;;32.36;60.77
23223;BME280;11780;13.904;100.620;2023-08-12T02:41:40;100873.66;;;32.36;60.50
23223;BME280;11780;13.904;100.620;2023-08-12T02:44:11;100866.31;;;32.40;60.89
23223;BME280;11780;13.904;100.620;2023-08-12T02:46:41;100871.88;;;32.40;60.94
23223;BME280;11780;13.904;100.620;2023-08-12T02:49:12;100867.78;;;32.46;60.89
23223;BME280;11780;13.904;100.620;2023-08-12T02:51:43;100864.31;;;32.49;60.25
23223;BME280;11780;13.904;100.620;2023-08-12T02:54:14;100872.50;;;32.46;60.42
23223;BME280;11780;13.904;100.620;2023-08-12T02:56:44;100868.06;;;32.54;60.44
23223;BME280;11780;13.904;100.620;2023-08-12T02:59:15;100866.59;;;32.47;60.34
23223;BME280;11780;13.904;100.620;2023-08-12T03:01:45;100865.63;;;32.52;60.53
23223;BME280;11780;13.904;100.620;2023-08-12T03:04:15;100861.56;;;32.49;60.25
23223;BME280;11780;13.904;100.620;2023-08-12T03:06:46;100859.28;;;32.52;60.16
23223;BME280;11780;13.904;100.620;2023-08-12T03:09:17;100860.41;;;32.50;60.36
23223;BME280;11780;13.904;100.620;2023-08-12T03:11:48;100865.78;;;32.56;60.23
23223;BME280;11780;13.904;100.620;2023-08-12T03:14:18;100869.03;;;32.58;60.41
23223;BME280;11780;13.904;100.620;2023-08-12T03:16:49;100865.78;;;32.56;59.99
23223;BME280;11780;13.904;100.620;2023-08-12T03:19:19;100854.03;;;32.59;59.72
23223;BME280;11780;13.904;100.620;2023-08-12T03:21:50;100853.22;;;32.58;58.97
23223;BME280;11780;13.904;100.620;2023-08-12T03:24:21;100854.56;;;32.52;59.92
23223;BME280;11780;13.904;100.620;2023-08-12T03:26:52;100850.66;;;32.53;59.56
23223;BME280;11780;13.904;100.620;2023-08-12T03:29:23;100851.59;;;32.57;59.17
23223;BME280;11780;13.904;100.620;2023-08-12T03:31:53;100842.97;;;32.59;58.84
23223;BME280;11780;13.904;100.620;2023-08-12T03:34:24;100843.28;;;32.57;58.36
23223;BME280;11780;13.904;100.620;2023-08-12T03:36:55;100845.25;;;32.57;58.34
23223;BME280;11780;13.904;100.620;2023-08-12T03:39:27;100844.28;;;32.53;58.89
23223;BME280;11780;13.904;100.620;2023-08-12T03:41:59;100833.03;;;32.58;57.95
23223;BME280;11780;13.904;100.620;2023-08-12T03:44:29;100821.94;;;32.58;57.71
23223;BME280;11780;13.904;100.620;2023-08-12T03:47:00;100827.00;;;32.56;57.92
23223;BME280;11780;13.904;100.620;2023-08-12T03:49:32;100825.19;;;32.60;58.31
23223;BME280;11780;13.904;100.620;2023-08-12T03:52:03;100820.94;;;32.62;58.24
23223;BME280;11780;13.904;100.620;2023-08-12T03:54:34;100821.91;;;32.67;58.25
23223;BME280;11780;13.904;100.620;2023-08-12T03:57:04;100827.97;;;32.60;58.76
23223;BME280;11780;13.904;100.620;2023-08-12T03:59:35;100819.44;;;32.65;58.73
23223;BME280;11780;13.904;100.620;2023-08-12T04:02:06;100817.66;;;32.69;58.75
23223;BME280;11780;13.904;100.620;2023-08-12T04:04:36;100812.44;;;32.68;58.58
23223;BME280;11780;13.904;100.620;2023-08-12T04:07:07;100814.41;;;32.67;58.07
23223;BME280;11780;13.904;100.620;2023-08-12T04:09:37;100816.50;;;32.70;58.30
23223;BME280;11780;13.904;100.620;2023-08-12T04:12:07;100816.50;;;32.70;58.80
23223;BME280;11780;13.904;100.620;2023-08-12T04:14:38;100816.50;;;32.70;58.67
23223;BME280;11780;13.904;100.620;2023-08-12T04:17:10;100817.31;;;32.71;58.74
23223;BME280;11780;13.904;100.620;2023-08-12T04:19:42;100808.53;;;32.69;58.80
23223;BME280;11780;13.904;100.620;2023-08-12T04:22:12;100813.38;;;32.72;59.08
23223;BME280;11780;13.904;100.620;2023-08-12T04:24:42;100824.47;;;32.72;58.81
23223;BME280;11780;13.904;100.620;2023-08-12T04:27:13;100819.75;;;32.72;58.94
23223;BME280;11780;13.904;100.620;2023-08-12T04:29:46;100824.94;;;32.74;58.83
23223;BME280;11780;13.904;100.620;2023-08-12T04:32:16;100818.25;;;32.75;58.64
23223;BME280;11780;13.904;100.620;2023-08-12T04:34:47;100818.38;;;32.78;58.64
23223;BME280;11780;13.904;100.620;2023-08-12T04:37:17;100818.88;;;32.80;58.80
23223;BME280;11780;13.904;100.620;2023-08-12T04:39:49;100805.25;;;32.75;58.67
23223;BME280;11780;13.904;100.620;2023-08-12T04:42:20;100806.16;;;32.79;58.55
23223;BME280;11780;13.904;100.620;2023-08-12T04:44:51;100800.34;;;32.81;58.14
23223;BME280;11780;13.904;100.620;2023-08-12T04:47:21;100795.09;;;32.79;58.87
23223;BME280;11780;13.904;100.620;2023-08-12T04:49:56;100790.88;;;32.82;58.84
23223;BME280;11780;13.904;100.620;2023-08-12T04:52:28;100789.38;;;32.85;59.05
23223;BME280;11780;13.904;100.620;2023-08-12T04:54:59;100778.78;;;32.87;59.09
23223;BME280;11780;13.904;100.620;2023-08-12T04:57:29;100782.03;;;32.89;58.71
23223;BME280;11780;13.904;100.620;2023-08-12T05:00:00;100779.03;;;32.94;58.77
23223;BME280;11780;13.904;100.620;2023-08-12T05:02:30;100768.13;;;32.98;58.76
23223;BME280;11780;13.904;100.620;2023-08-12T05:05:02;100762.41;;;32.94;58.69
23223;BME280;11780;13.904;100.620;2023-08-12T05:07:34;100763.59;;;32.93;58.77
23223;BME280;11780;13.904;100.620;2023-08-12T05:10:08;100750.94;;;33.04;58.68
23223;BME280;11780;13.904;100.620;2023-08-12T05:12:39;100755.19;;;33.02;58.95
23223;BME280;11780;13.904;100.620;2023-08-12T05:15:10;100748.19;;;33.04;58.75
23223;BME280;11780;13.904;100.620;2023-08-12T05:17:41;100752.22;;;33.07;58.47
23223;BME280;11780;13.904;100.620;2023-08-12T05:20:15;100762.16;;;33.08;58.59
23223;BME280;11780;13.904;100.620;2023-08-12T05:22:46;100745.88;;;33.06;58.91
23223;BME280;11780;13.904;100.620;2023-08-12T05:25:17;100745.88;;;33.06;59.12
23223;BME280;11780;13.904;100.620;2023-08-12T05:27:47;100748.09;;;33.13;58.37
23223;BME280;11780;13.904;100.620;2023-08-12T05:30:18;100738.75;;;33.18;57.40
23223;BME280;11780;13.904;100.620;2023-08-12T05:32:49;100727.88;;;33.13;57.52
23223;BME280;11780;13.904;100.620;2023-08-12T05:35:19;100726.53;;;33.19;57.05
23223;BME280;11780;13.904;100.620;2023-08-12T05:37:51;100715.44;;;33.19;57.59
23223;BME280;11780;13.904;100.620;2023-08-12T05:40:21;100719.16;;;33.23;57.51
23223;BME280;11780;13.904;100.620;2023-08-12T05:42:52;100715.38;;;33.28;56.80
23223;BME280;11780;13.904;100.620;2023-08-12T05:45:22;100706.38;;;33.31;56.98
23223;BME280;11780;13.904;100.620;2023-08-12T05:47:53;100706.69;;;33.29;57.42
23223;BME280;11780;13.904;100.620;2023-08-12T05:50:23;100699.06;;;33.26;57.66
23223;BME280;11780;13.904;100.620;2023-08-12T05:52:53;100692.50;;;33.31;57.45
23223;BME280;11780;13.904;100.620;2023-08-12T05:55:24;100690.63;;;33.22;58.10
23223;BME280;11780;13.904;100.620;2023-08-12T05:57:55;100682.31;;;33.22;58.08
23223;BME280;11780;13.904;100.620;2023-08-12T06:00:25;100676.88;;;33.26;58.05
23223;BME280;11780;13.904;100.620;2023-08-12T06:02:56;100684.50;;;33.29;57.82
23223;BME280;11780;13.904;100.620;2023-08-12T06:05:26;100675.53;;;33.32;57.64
23223;BME280;11780;13.904;100.620;2023-08-12T06:07:56;100664.78;;;33.31;58.02
23223;BME280;11780;13.904;100.620;2023-08-12T06:10:27;100648.53;;;33.42;58.06
23223;BME280;11780;13.904;100.620;2023-08-12T06:12:57;100640.94;;;33.38;58.26
23223;BME280;11780;13.904;100.620;2023-08-12T06:15:28;100645.31;;;33.39;58.17
23223;BME280;11780;13.904;100.620;2023-08-12T06:17:59;100640.56;;;33.40;57.90
23223;BME280;11780;13.904;100.620;2023-08-12T06:20:29;100634.56;;;33.38;58.04
23223;BME280;11780;13.904;100.620;2023-08-12T06:22:59;100640.94;;;33.38;58.38
23223;BME280;11780;13.904;100.620;2023-08-12T06:25:30;100632.72;;;33.42;58.16
23223;BME280;11780;13.904;100.620;2023-08-12T06:28:00;100626.13;;;33.47;58.14
23223;BME280;11780;13.904;100.620;2023-08-12T06:30:31;100625.66;;;33.45;58.13
23223;BME280;11780;13.904;100.620;2023-08-12T06:33:01;100620.38;;;33.39;58.49
23223;BME280;11780;13.904;100.620;2023-08-12T06:35:32;100619.19;;;33.40;59.21
23223;BME280;11780;13.904;100.620;2023-08-12T06:38:02;100626.03;;;33.43;59.15
23223;BME280;11780;13.904;100.620;2023-08-12T06:40:33;100620.69;;;33.38;59.62
23223;BME280;11780;13.904;100.620;2023-08-12T06:43:03;100620.38;;;33.39;59.42
23223;BME280;11780;13.904;100.620;2023-08-12T06:45:33;100621.97;;;33.40;59.15
23223;BME280;11780;13.904;100.620;2023-08-12T06:48:04;100608.91;;;33.41;59.23
23223;BME280;11780;13.904;100.620;2023-08-12T06:50:34;100611.69;;;33.41;58.53
23223;BME280;11780;13.904;100.620;2023-08-12T06:53:05;100608.69;;;33.46;57.84
23223;BME280;11780;13.904;100.620;2023-08-12T06:55:35;100605.47;;;33.44;58.37
23223;BME280;11780;13.904;100.620;2023-08-12T06:58:05;100605.56;;;33.48;58.38
23223;BME280;11780;13.904;100.620;2023-08-12T07:00:36;100615.16;;;33.50;57.59
23223;BME280;11780;13.904;100.620;2023-08-12T07:03:06;100595.53;;;33.55;57.79
23223;BME280;11780;13.904;100.620;2023-08-12T07:05:36;100590.09;;;33.59;57.93
23223;BME280;11780;13.904;100.620;2023-08-12T07:08:07;100586.72;;;33.66;57.46
23223;BME280;11780;13.904;100.620;2023-08-12T07:10:41;100593.31;;;33.61;57.68
23223;BME280;11780;13.904;100.620;2023-08-12T07:13:11;100578.66;;;33.61;57.79
23223;BME280;11780;13.904;100.620;2023-08-12T07:15:41;100572.28;;;33.60;57.53
23223;BME280;11780;13.904;100.620;2023-08-12T07:18:11;100568.72;;;33.60;57.96
23223;BME280;11780;13.904;100.620;2023-08-12T07:20:42;100560.16;;;33.65;57.49
23223;BME280;11780;13.904;100.620;2023-08-12T07:23:13;100550.69;;;33.66;57.34
23223;BME280;11780;13.904;100.620;2023-08-12T07:25:46;100551.72;;;33.61;57.72
23223;BME280;11780;13.904;100.620;2023-08-12T07:28:16;100548.97;;;33.61;57.63
23223;BME280;11780;13.904;100.620;2023-08-12T07:30:48;100550.22;;;33.64;57.81
23223;BME280;11780;13.904;100.620;2023-08-12T07:33:20;100550.78;;;33.57;58.00
23223;BME280;11780;13.904;100.620;2023-08-12T07:35:51;100535.78;;;33.58;58.30
23223;BME280;11780;13.904;100.620;2023-08-12T07:38:22;100533.34;;;33.69;57.56
23223;BME280;11780;13.904;100.620;2023-08-12T07:40:53;100523.78;;;33.66;57.72
23223;BME280;11780;13.904;100.620;2023-08-12T07:43:23;100509.91;;;33.66;57.69
23223;BME280;11780;13.904;100.620;2023-08-12T07:45:54;100512.09;;;33.73;57.34
23223;BME280;11780;13.904;100.620;2023-08-12T07:48:36;100505.13;;;33.79;56.78
23223;BME280;11780;13.904;100.620;2023-08-12T07:51:08;100489.06;;;33.73;57.06
23223;BME280;11780;13.904;100.620;2023-08-12T07:53:38;100469.31;;;33.74;57.57
23223;BME280;11780;13.904;100.620;2023-08-12T07:56:09;100463.72;;;33.86;56.96
23223;BME280;11780;13.904;100.620;2023-08-12T07:58:39;100457.03;;;33.88;56.85
23223;BME280;11780;13.904;100.620;2023-08-12T08:01:10;100463.63;;;33.83;57.31
23223;BME280;11780;13.904;100.620;2023-08-12T08:03:40;100460.50;;;33.84;57.46
23223;BME280;11780;13.904;100.620;2023-08-12T08:06:11;100458.69;;;33.89;57.04
23223;BME280;11780;13.904;100.620;2023-08-12T08:08:41;100454.63;;;33.86;57.40
23223;BME280;11780;13.904;100.620;2023-08-12T08:11:12;100453.34;;;33.83;57.41
23223;BME280;11780;13.904;100.620;2023-08-12T08:13:42;100451.16;;;33.89;57.75
23223;BME280;11780;13.904;100.620;2023-08-12T08:16:12;100447.44;;;33.85;57.71
23223;BME280;11780;13.904;100.620;2023-08-12T08:18:43;100441.19;;;33.88;57.61
23223;BME280;11780;13.904;100.620;2023-08-12T08:21:14;100426.88;;;33.86;57.81
23223;BME280;11780;13.904;100.620;2023-08-12T08:23:44;100429.97;;;33.84;57.75
23223;BME280;11780;13.904;100.620;2023-08-12T08:26:14;100423.28;;;33.85;57.52
23223;BME280;11780;13.904;100.620;2023-08-12T08:28:45;100429.41;;;33.91;57.38
23223;BME280;11780;13.904;100.620;2023-08-12T08:31:17;100431.50;;;33.94;57.30
23223;BME280;11780;13.904;100.620;2023-08-12T08:33:48;100422.59;;;33.89;57.37
23223;BME280;11780;13.904;100.620;2023-08-12T08:36:18;100410.34;;;33.90;57.42
23223;BME280;11780;13.904;100.620;2023-08-12T08:38:49;100399.72;;;33.92;57.05
23223;BME280;11780;13.904;100.620;2023-08-12T08:41:20;100413.31;;;33.97;56.91
23223;BME280;11780;13.904;100.620;2023-08-12T08:43:53;100402.50;;;33.92;57.17
23223;BME280;11780;13.904;100.620;2023-08-12T08:46:25;100407.44;;;33.98;57.18
23223;BME280;11780;13.904;100.620;2023-08-12T08:48:59;100406.59;;;33.98;57.10
23223;BME280;11780;13.904;100.620;2023-08-12T08:51:32;100415.38;;;34.00;57.07
23223;BME280;11780;13.904;100.620;2023-08-12T08:54:03;100418.53;;;33.98;56.92
23223;BME280;11780;13.904;100.620;2023-08-12T08:56:34;100441.53;;;33.99;57.04
23223;BME280;11780;13.904;100.620;2023-08-12T08:59:14;100451.16;;;33.77;58.70
23223;BME280;11780;13.904;100.620;2023-08-12T09:01:45;100447.31;;;33.53;58.79
23223;BME280;11780;13.904;100.620;2023-08-12T09:04:23;100447.53;;;33.48;58.95
23223;BME280;11780;13.904;100.620;2023-08-12T09:06:55;100455.06;;;33.47;58.56
23223;BME280;11780;13.904;100.620;2023-08-12T09:09:26;100454.34;;;33.25;58.26
23223;BME280;11780;13.904;100.620;2023-08-12T09:11:57;100451.56;;;33.13;58.64
23223;BME280;11780;13.904;100.620;2023-08-12T09:14:27;100453.78;;;33.07;59.36
23223;BME280;11780;13.904;100.620;2023-08-12T09:16:58;100440.34;;;33.09;59.78
23223;BME280;11780;13.904;100.620;2023-08-12T09:19:29;100445.09;;;33.09;59.20
23223;BME280;11780;13.904;100.620;2023-08-12T09:21:59;100455.59;;;33.16;58.98
23223;BME280;11780;13.904;100.620;2023-08-12T09:24:30;100463.72;;;33.08;58.49
23223;BME280;11780;13.904;100.620;2023-08-12T09:27:00;100456.28;;;33.13;58.30
23223;BME280;11780;13.904;100.620;2023-08-12T09:29:32;100435.41;;;33.03;57.85
23223;BME280;11780;13.904;100.620;2023-08-12T09:32:14;100417.28;;;32.93;57.81
23223;BME280;11780;13.904;100.620;2023-08-12T09:34:51;100416.47;;;32.92;58.06
23223;BME280;11780;13.904;100.620;2023-08-12T09:37:24;100424.69;;;32.89;58.16
23223;BME280;11780;13.904;100.620;2023-08-12T09:39:56;100435.06;;;32.92;58.56
23223;BME280;11780;13.904;100.620;2023-08-12T09:42:28;100435.19;;;32.83;58.91
23223;BME280;11780;13.904;100.620;2023-08-12T09:44:58;100443.50;;;32.83;59.65
23223;BME280;11780;13.904;100.620;2023-08-12T09:47:30;100447.53;;;32.86;60.21
23223;BME280;11780;13.904;100.620;2023-08-12T09:50:01;100449.13;;;32.87;60.42
23223;BME280;11780;13.904;100.620;2023-08-12T09:52:32;100432.94;;;32.76;61.09
23223;BME280;11780;13.904;100.620;2023-08-12T09:55:02;100422.78;;;32.80;61.37
23223;BME280;11780;13.904;100.620;2023-08-12T09:57:40;100428.88;;;32.74;61.89
23223;BME280;11780;13.904;100.620;2023-08-12T10:00:13;100449.34;;;32.82;62.12
23223;BME280;11780;13.904;100.620;2023-08-12T10:02:48;100467.53;;;32.70;62.85
23223;BME280;11780;13.904;100.620;2023-08-12T10:05:24;100464.97;;;32.53;63.50
23223;BME280;11780;13.904;100.620;2023-08-12T10:07:57;100453.09;;;32.52;63.44
23223;BME280;11780;13.904;100.620;2023-08-12T10:10:30;100445.59;;;32.53;63.46
23223;BME280;11780;13.904;100.620;2023-08-12T10:13:01;100446.50;;;32.44;63.85
23223;BME280;11780;13.904;100.620;2023-08-12T10:15:31;100445.34;;;32.45;63.83
23223;BME280;11780;13.904;100.620;2023-08-12T10:18:03;100441.56;;;32.50;63.29
23223;BME280;11780;13.904;100.620;2023-08-12T10:20:39;100438.66;;;32.46;63.44
23223;BME280;11780;13.904;100.620;2023-08-12T10:23:16;100434.78;;;32.60;63.06
23223;BME280;11780;13.904;100.620;2023-08-12T10:25:49;100438.44;;;32.52;62.88
23223;BME280;11780;13.904;100.620;2023-08-12T10:28:24;100453.22;;;32.56;62.37
23223;BME280;11780;13.904;100.620;2023-08-12T10:30:54;100460.84;;;32.59;62.56
23223;BME280;11780;13.904;100.620;2023-08-12T10:33:26;100460.59;;;32.64;62.26
23223;BME280;11780;13.904;100.620;2023-08-12T10:36:09;100463.63;;;32.71;61.89
23223;BME280;11780;13.904;100.620;2023-08-12T10:38:56;100450.09;;;32.57;61.66
23223;BME280;11780;13.904;100.620;2023-08-12T10:41:54;100454.84;;;32.69;61.50
23223;BME280;11780;13.904;100.620;2023-08-12T10:44:50;100442.38;;;32.63;61.22
23223;BME280;11780;13.904;100.620;2023-08-12T10:47:47;100457.16;;;32.67;61.12
23223;BME280;11780;13.904;100.620;2023-08-12T10:50:33;100452.75;;;32.66;61.85
23223;BME280;11780;13.904;100.620;2023-08-12T10:53:28;100466.75;;;32.70;62.00
23223;BME280;11780;13.904;100.620;2023-08-12T10:56:17;100456.59;;;32.74;62.32
23223;BME280;11780;13.904;100.620;2023-08-12T10:59:03;100465.94;;;32.69;62.73
23223;BME280;11780;13.904;100.620;2023-08-12T11:01:49;100476.66;;;32.71;62.90
23223;BME280;11780;13.904;100.620;2023-08-12T11:04:38;100482.91;;;32.68;63.31
23223;BME280;11780;13.904;100.620;2023-08-12T11:07:42;100477.00;;;32.69;63.76
23223;BME280;11780;13.904;100.620;2023-08-12T11:10:32;100474.03;;;32.74;63.87
23223;BME280;11780;13.904;100.620;2023-08-12T11:13:19;100492.25;;;32.75;64.17
23223;BME280;11780;13.904;100.620;2023-08-12T11:16:09;100501.19;;;32.81;64.21
23223;BME280;11780;13.904;100.620;2023-08-12T11:18:55;100515.16;;;32.85;64.57
23223;BME280;11780;13.904;100.620;2023-08-12T11:21:41;100539.72;;;32.86;64.48
23223;BME280;11780;13.904;100.620;2023-08-12T11:24:28;100537.47;;;32.79;64.92
23223;BME280;11780;13.904;100.620;2023-08-12T11:27:17;100548.03;;;32.86;65.09
23223;BME280;11780;13.904;100.620;2023-08-12T11:30:03;100552.44;;;32.87;65.18
23223;BME280;11780;13.904;100.620;2023-08-12T11:32:50;100544.72;;;32.93;65.19
23223;BME280;11780;13.904;100.620;2023-08-12T11:35:37;100548.66;;;32.92;65.65
23223;BME280;11780;13.904;100.620;2023-08-12T11:38:23;100550.28;;;32.93;65.42
23223;BME280;11780;13.904;100.620;2023-08-12T11:41:09;100556.59;;;32.93;65.89
23223;BME280;11780;13.904;100.620;2023-08-12T11:43:54;100563.78;;;32.94;65.95
23223;BME280;11780;13.904;100.620;2023-08-12T11:46:40;100576.13;;;32.97;66.03
23223;BME280;11780;13.904;100.620;2023-08-12T11:49:25;100594.84;;;33.00;66.00
23223;BME280;11780;13.904;100.620;2023-08-12T11:52:11;100596.81;;;33.00;66.44
23223;BME280;11780;13.904;100.620;2023-08-12T11:54:57;100599.22;;;33.01;66.39
23223;BME280;11780;13.904;100.620;2023-08-12T11:57:43;100601.41;;;32.95;66.72
23223;BME280;11780;13.904;100.620;2023-08-12T12:00:29;100608.69;;;33.00;66.84
23223;BME280;11780;13.904;100.620;2023-08-12T12:03:16;100603.41;;;33.07;66.72
23223;BME280;11780;13.904;100.620;2023-08-12T12:06:02;100611.94;;;33.02;66.97
23223;BME280;11780;13.904;100.620;2023-08-12T12:08:47;100625.91;;;33.06;66.72
23223;BME280;11780;13.904;100.620;2023-08-12T12:11:33;100636.66;;;33.07;66.73
23223;BME280;11780;13.904;100.620;2023-08-12T12:14:18;100637.09;;;33.09;66.99
23223;BME280;11780;13.904;100.620;2023-08-12T12:17:07;100646.13;;;33.06;66.62
23223;BME280;11780;13.904;100.620;2023-08-12T12:19:59;100667.47;;;33.06;67.00
23223;BME280;11780;13.904;100.620;2023-08-12T12:22:46;100689.50;;;33.02;67.59
23223;BME280;11780;13.904;100.620;2023-08-12T12:25:32;100692.28;;;33.02;68.70
23223;BME280;11780;13.904;100.620;2023-08-12T12:28:17;100690.50;;;32.55;69.48
23223;BME280;11780;13.904;100.620;2023-08-12T12:31:03;100693.69;;;32.66;69.53
23223;BME280;11780;13.904;100.620;2023-08-12T12:33:48;100714.50;;;32.72;68.58
23223;BME280;11780;13.904;100.620;2023-08-12T12:36:35;100718.13;;;32.43;68.27
23223;BME280;11780;13.904;100.620;2023-08-12T12:39:21;100682.66;;;32.36;69.00
23223;BME280;11780;13.904;100.620;2023-08-12T12:42:08;100693.13;;;32.30;69.05
23223;BME280;11780;13.904;100.620;2023-08-12T12:44:54;100677.28;;;32.01;68.15
23223;BME280;11780;13.904;100.620;2023-08-12T12:47:39;100678.28;;;31.96;67.92
23223;BME280;11780;13.904;100.620;2023-08-12T12:50:25;100679.19;;;31.79;68.70
23223;BME280;11780;13.904;100.620;2023-08-12T14:23:09;100817.47;;;31.44;73.36
23223;BME280;11780;13.904;100.620;2023-08-12T14:25:55;100814.56;;;31.49;73.31
23223;BME280;11780;13.904;100.620;2023-08-12T14:28:40;100828.38;;;31.58;73.42
23223;BME280;11780;13.904;100.620;2023-08-12T14:31:26;100828.69;;;31.65;72.94
23223;BME280;11780;13.904;100.620;2023-08-12T14:34:11;100830.97;;;31.72;72.74
23223;BME280;11780;13.904;100.620;2023-08-12T14:36:57;100835.50;;;31.85;72.59